Time,TemperatureF,DewpointF,PressureIn,WindDirection,WindDirectionDegrees,WindSpeedMPH,WindSpeedGustMPH,Humidity,HourlyPrecipIn,Conditions,Clouds,dailyrainin,SoftwareType,DateUTC
2013-03-18 00:03:00,29.0,22.0,30.09,South,169,7.0,13.0,74,0.00,,,0.00,,2013-03-18 04:03:00,
2013-03-18 00:13:00,29.0,22.0,30.09,South,169,7.0,13.0,74,0.00,,,0.00,,2013-03-18 04:13:00,
2013-03-18 00:23:00,29.0,22.0,30.09,NE,49,5.0,14.0,75,0.00,,,0.00,,2013-03-18 04:23:00,
2013-03-18 00:33:00,29.0,22.0,30.09,East,99,4.0,14.0,76,0.00,,,0.00,,2013-03-18 04:33:00,
2013-03-18 00:42:00,29.0,22.0,30.09,East,99,4.0,14.0,76,0.00,,,0.00,,2013-03-18 04:42:00,
2013-03-18 00:52:00,28.0,21.0,30.08,East,82,6.0,17.0,76,0.00,,,0.00,,2013-03-18 04:52:00,
2013-03-18 01:02:00,28.0,21.0,30.07,ENE,61,5.0,13.0,76,0.00,,,0.00,,2013-03-18 05:02:00,
2013-03-18 01:12:00,28.0,21.0,30.07,ENE,61,5.0,13.0,76,0.00,,,0.00,,2013-03-18 05:12:00,
2013-03-18 01:22:00,28.0,21.0,30.07,ENE,78,3.0,14.0,76,0.00,,,0.00,,2013-03-18 05:22:00,
2013-03-18 01:32:00,28.0,22.0,30.07,ESE,114,4.0,12.0,77,0.00,,,0.00,,2013-03-18 05:32:00,
2013-03-18 01:43:00,28.0,22.0,30.07,ESE,114,4.0,12.0,77,0.00,,,0.00,,2013-03-18 05:43:00,
2013-03-18 01:52:00,28.0,22.0,30.06,ENE,68,5.0,12.0,77,0.00,,,0.00,,2013-03-18 05:52:00,
2013-03-18 02:02:00,28.0,22.0,30.05,ESE,113,4.0,11.0,77,0.00,,,0.00,,2013-03-18 06:02:00,
2013-03-18 02:12:00,28.0,22.0,30.05,ESE,113,4.0,11.0,77,0.00,,,0.00,,2013-03-18 06:12:00,
2013-03-18 02:22:00,28.0,22.0,30.04,SE,126,5.0,13.0,77,0.00,,,0.00,,2013-03-18 06:22:00,
2013-03-18 02:32:00,28.0,22.0,30.03,ENE,67,4.0,14.0,77,0.00,,,0.00,,2013-03-18 06:32:00,
2013-03-18 02:42:00,28.0,22.0,30.03,ENE,67,4.0,14.0,77,0.00,,,0.00,,2013-03-18 06:42:00,
2013-03-18 02:52:00,28.0,22.0,30.02,ESE,113,3.0,11.0,78,0.00,,,0.00,,2013-03-18 06:52:00,
2013-03-18 03:02:00,28.0,22.0,30.01,ENE,78,5.0,15.0,78,0.00,,,0.00,,2013-03-18 07:02:00,
2013-03-18 03:12:00,28.0,22.0,30.01,ENE,78,5.0,15.0,78,0.00,,,0.00,,2013-03-18 07:12:00,
2013-03-18 03:22:00,28.0,22.0,30.00,SE,129,6.0,15.0,78,0.00,,,0.00,,2013-03-18 07:22:00,
2013-03-18 03:32:00,28.0,22.0,29.98,ESE,107,3.0,13.0,78,0.00,,,0.00,,2013-03-18 07:32:00,
2013-03-18 03:42:00,28.0,22.0,29.98,ESE,107,3.0,13.0,78,0.00,,,0.00,,2013-03-18 07:42:00,
2013-03-18 03:52:00,29.0,23.0,29.98,SE,143,6.0,13.0,78,0.00,,,0.00,,2013-03-18 07:52:00,
2013-03-18 04:02:00,29.0,23.0,29.97,NE,55,5.0,13.0,78,0.00,,,0.00,,2013-03-18 08:02:00,
2013-03-18 04:12:00,29.0,23.0,29.97,NE,55,5.0,13.0,78,0.00,,,0.00,,2013-03-18 08:12:00,
2013-03-18 04:22:00,29.0,23.0,29.96,East,96,4.0,10.0,78,0.00,,,0.00,,2013-03-18 08:22:00,
2013-03-18 04:32:00,29.0,23.0,29.95,East,89,4.0,11.0,78,0.00,,,0.00,,2013-03-18 08:32:00,
2013-03-18 04:43:00,29.0,23.0,29.95,East,89,4.0,11.0,78,0.00,,,0.00,,2013-03-18 08:43:00,
2013-03-18 04:52:00,29.0,23.0,29.94,NE,46,4.0,11.0,78,0.00,,,0.00,,2013-03-18 08:52:00,
2013-03-18 05:02:00,29.0,23.0,29.92,ENE,76,4.0,14.0,78,0.00,,,0.00,,2013-03-18 09:02:00,
2013-03-18 05:12:00,29.0,23.0,29.92,ENE,76,4.0,14.0,78,0.00,,,0.00,,2013-03-18 09:12:00,
2013-03-18 05:22:00,29.0,23.0,29.91,SSE,151,4.0,11.0,78,0.00,,,0.00,,2013-03-18 09:22:00,
2013-03-18 05:33:00,29.0,23.0,29.90,NE,54,3.0,10.0,78,0.00,,,0.00,,2013-03-18 09:33:00,
2013-03-18 05:43:00,29.0,23.0,29.90,NE,54,3.0,10.0,78,0.00,,,0.00,,2013-03-18 09:43:00,
2013-03-18 05:53:00,29.0,23.0,29.90,NE,54,3.0,10.0,78,0.00,,,0.00,,2013-03-18 09:53:00,
2013-03-18 06:03:00,30.0,24.0,29.88,NE,51,6.0,15.0,77,0.00,,,0.00,,2013-03-18 10:03:00,
2013-03-18 06:12:00,30.0,24.0,29.88,NE,51,6.0,15.0,77,0.00,,,0.00,,2013-03-18 10:12:00,
2013-03-18 06:23:00,30.0,24.0,29.87,NE,38,5.0,11.0,77,0.00,,,0.00,,2013-03-18 10:23:00,
2013-03-18 06:33:00,30.0,24.0,29.88,ESE,105,3.0,9.0,78,0.00,,,0.00,,2013-03-18 10:33:00,
2013-03-18 06:42:00,30.0,24.0,29.88,ESE,105,3.0,9.0,78,0.00,,,0.00,,2013-03-18 10:42:00,
2013-03-18 06:52:00,30.0,25.0,29.87,ESE,113,2.0,11.0,80,0.00,,,0.00,,2013-03-18 10:52:00,
2013-03-18 07:03:00,29.0,24.0,29.85,East,96,4.0,11.0,81,0.00,,,0.00,,2013-03-18 11:03:00,
2013-03-18 07:13:00,29.0,24.0,29.85,East,96,4.0,11.0,81,0.00,,,0.00,,2013-03-18 11:13:00,
2013-03-18 07:22:00,29.0,25.0,29.85,ESE,112,4.0,10.0,83,0.00,,,0.00,,2013-03-18 11:22:00,
2013-03-18 07:32:00,29.0,25.0,29.84,SE,138,4.0,15.0,84,0.00,,,0.00,,2013-03-18 11:32:00,
2013-03-18 07:42:00,29.0,25.0,29.84,SE,138,4.0,15.0,84,0.00,,,0.00,,2013-03-18 11:42:00,
2013-03-18 07:52:00,29.0,25.0,29.83,East,98,2.0,9.0,85,0.00,,,0.00,,2013-03-18 11:52:00,
2013-03-18 08:02:00,29.0,25.0,29.83,East,98,2.0,9.0,85,0.00,,,0.00,,2013-03-18 12:02:00,
2013-03-18 08:12:00,29.0,25.0,29.83,East,98,2.0,9.0,85,0.00,,,0.00,,2013-03-18 12:12:00,
2013-03-18 08:22:00,29.0,26.0,29.81,SE,129,2.0,11.0,87,0.00,,,0.00,,2013-03-18 12:22:00,
2013-03-18 08:32:00,29.0,26.0,29.80,SE,145,5.0,14.0,87,0.00,,,0.00,,2013-03-18 12:32:00,
2013-03-18 08:42:00,29.0,26.0,29.80,SE,145,5.0,14.0,87,0.00,,,0.00,,2013-03-18 12:42:00,
2013-03-18 08:52:00,29.0,26.0,29.80,ENE,63,5.0,14.0,87,0.00,,,0.00,,2013-03-18 12:52:00,
2013-03-18 09:02:00,30.0,27.0,29.79,SE,124,5.0,10.0,88,0.00,,,0.00,,2013-03-18 13:02:00,
2013-03-18 09:12:00,30.0,27.0,29.79,SE,124,5.0,10.0,88,0.00,,,0.00,,2013-03-18 13:12:00,
2013-03-18 09:22:00,30.0,27.0,29.78,ENE,64,4.0,13.0,90,0.00,,,0.00,,2013-03-18 13:22:00,
2013-03-18 09:33:00,30.0,27.0,29.77,East,96,3.0,10.0,90,0.00,,,0.00,,2013-03-18 13:33:00,
2013-03-18 09:42:00,30.0,27.0,29.77,East,96,3.0,10.0,90,0.00,,,0.00,,2013-03-18 13:42:00,
2013-03-18 09:52:00,30.0,28.0,29.77,ESE,121,2.0,10.0,91,0.00,,,0.00,,2013-03-18 13:52:00,
2013-03-18 10:02:00,30.0,28.0,29.76,NE,46,2.0,7.0,92,0.00,,,0.00,,2013-03-18 14:02:00,
2013-03-18 10:12:00,30.0,28.0,29.76,NE,46,2.0,7.0,92,0.00,,,0.00,,2013-03-18 14:12:00,
2013-03-18 10:22:00,30.0,28.0,29.75,ENE,70,4.0,9.0,92,0.00,,,0.00,,2013-03-18 14:22:00,
2013-03-18 10:32:00,30.0,28.0,29.75,SE,133,3.0,8.0,92,0.00,,,0.00,,2013-03-18 14:32:00,
2013-03-18 10:42:00,30.0,28.0,29.75,SE,133,3.0,8.0,92,0.00,,,0.00,,2013-03-18 14:42:00,
2013-03-18 10:52:00,30.0,28.0,29.74,ESE,120,3.0,11.0,93,0.00,,,0.00,,2013-03-18 14:52:00,
2013-03-18 11:02:00,31.0,29.0,29.73,ESE,123,2.0,8.0,93,0.00,,,0.00,,2013-03-18 15:02:00,
2013-03-18 11:12:00,31.0,29.0,29.73,ESE,123,2.0,8.0,93,0.00,,,0.00,,2013-03-18 15:12:00,
2013-03-18 11:22:00,31.0,29.0,29.72,ESE,111,3.0,9.0,93,0.00,,,0.00,,2013-03-18 15:22:00,
2013-03-18 11:33:00,31.0,29.0,29.72,ESE,107,4.0,12.0,93,0.00,,,0.00,,2013-03-18 15:33:00,
2013-03-18 11:43:00,31.0,29.0,29.72,ESE,107,4.0,12.0,93,0.00,,,0.00,,2013-03-18 15:43:00,
2013-03-18 11:52:00,31.0,29.0,29.72,ESE,113,2.0,7.0,92,0.00,,,0.00,,2013-03-18 15:52:00,
2013-03-18 12:03:00,31.0,29.0,29.71,SE,131,2.0,8.0,92,0.00,,,0.00,,2013-03-18 16:03:00,
2013-03-18 12:12:00,31.0,29.0,29.71,SE,131,2.0,8.0,92,0.00,,,0.00,,2013-03-18 16:12:00,
2013-03-18 12:22:00,32.0,30.0,29.71,ENE,65,3.0,12.0,93,0.00,,,0.00,,2013-03-18 16:22:00,
2013-03-18 12:32:00,32.0,30.0,29.70,ENE,76,2.0,8.0,93,0.00,,,0.00,,2013-03-18 16:32:00,
2013-03-18 12:42:00,32.0,30.0,29.70,ENE,76,2.0,8.0,93,0.00,,,0.00,,2013-03-18 16:42:00,
2013-03-18 12:52:00,32.0,30.0,29.70,SE,124,2.0,9.0,93,0.00,,,0.00,,2013-03-18 16:52:00,
2013-03-18 13:02:00,32.0,30.0,29.70,SE,124,2.0,9.0,93,0.00,,,0.00,,2013-03-18 17:02:00,
2013-03-18 13:12:00,32.0,30.0,29.70,SE,124,2.0,9.0,93,0.00,,,0.00,,2013-03-18 17:12:00,
2013-03-18 13:22:00,32.0,30.0,29.68,ESE,119,4.0,9.0,93,0.01,,,0.01,,2013-03-18 17:22:00,
2013-03-18 13:32:00,32.0,30.0,29.67,ESE,105,3.0,7.0,94,0.02,,,0.02,,2013-03-18 17:32:00,
2013-03-18 13:42:00,32.0,30.0,29.67,ESE,105,3.0,7.0,94,0.02,,,0.02,,2013-03-18 17:42:00,
2013-03-18 13:52:00,33.0,31.0,29.65,SSE,159,2.0,9.0,94,0.02,,,0.02,,2013-03-18 17:52:00,
2013-03-18 14:02:00,33.0,31.0,29.65,SSE,159,2.0,9.0,94,0.02,,,0.02,,2013-03-18 18:02:00,
2013-03-18 14:12:00,33.0,31.0,29.65,SSE,159,2.0,9.0,94,0.02,,,0.02,,2013-03-18 18:12:00,
2013-03-18 14:22:00,33.0,31.0,29.65,ESE,107,2.0,7.0,94,0.01,,,0.02,,2013-03-18 18:22:00,
2013-03-18 14:32:00,33.0,31.0,29.63,SE,140,2.0,8.0,94,0.00,,,0.02,,2013-03-18 18:32:00,
2013-03-18 14:42:00,33.0,31.0,29.63,SE,140,2.0,8.0,94,0.00,,,0.02,,2013-03-18 18:42:00,
2013-03-18 14:52:00,33.0,31.0,29.63,SE,144,2.0,6.0,94,0.00,,,0.02,,2013-03-18 18:52:00,
2013-03-18 15:02:00,33.0,31.0,29.62,SE,134,1.0,6.0,94,0.00,,,0.02,,2013-03-18 19:02:00,
2013-03-18 15:12:00,33.0,31.0,29.62,SE,134,1.0,6.0,94,0.00,,,0.02,,2013-03-18 19:12:00,
2013-03-18 15:22:00,33.0,31.0,29.63,ESE,121,2.0,7.0,94,0.00,,,0.02,,2013-03-18 19:22:00,
2013-03-18 15:33:00,34.0,32.0,29.65,South,190,1.0,3.0,94,0.00,,,0.02,,2013-03-18 19:33:00,
2013-03-18 15:42:00,34.0,32.0,29.65,South,190,1.0,3.0,94,0.00,,,0.02,,2013-03-18 19:42:00,
2013-03-18 15:52:00,34.0,32.0,29.63,SSW,200,0.0,3.0,94,0.00,,,0.02,,2013-03-18 19:52:00,
2013-03-18 16:02:00,34.0,33.0,29.64,SSW,192,0.0,2.0,95,0.00,,,0.02,,2013-03-18 20:02:00,
2013-03-18 16:12:00,34.0,33.0,29.64,SSW,192,0.0,2.0,95,0.00,,,0.02,,2013-03-18 20:12:00,
2013-03-18 16:22:00,34.0,33.0,29.62,SE,145,0.0,2.0,95,0.00,,,0.02,,2013-03-18 20:22:00,
2013-03-18 16:33:00,34.0,33.0,29.62,SE,145,0.0,1.0,95,0.00,,,0.02,,2013-03-18 20:33:00,
2013-03-18 16:42:00,34.0,33.0,29.62,SE,145,0.0,1.0,95,0.00,,,0.02,,2013-03-18 20:42:00,
2013-03-18 16:52:00,34.0,33.0,29.62,SE,146,0.0,2.0,95,0.01,,,0.03,,2013-03-18 20:52:00,
2013-03-18 17:02:00,34.0,33.0,29.62,SE,141,0.0,3.0,95,0.01,,,0.03,,2013-03-18 21:02:00,
2013-03-18 17:12:00,34.0,33.0,29.62,SE,141,0.0,3.0,95,0.01,,,0.03,,2013-03-18 21:12:00,
2013-03-18 17:22:00,35.0,34.0,29.62,SE,142,0.0,3.0,95,0.01,,,0.03,,2013-03-18 21:22:00,
2013-03-18 17:32:00,35.0,34.0,29.63,WSW,243,0.0,5.0,95,0.01,,,0.03,,2013-03-18 21:32:00,
2013-03-18 17:42:00,35.0,34.0,29.63,WSW,243,0.0,5.0,95,0.01,,,0.03,,2013-03-18 21:42:00,
2013-03-18 17:52:00,35.0,34.0,29.63,SE,144,0.0,2.0,95,0.00,,,0.03,,2013-03-18 21:52:00,
2013-03-18 18:03:00,35.0,33.0,29.63,WSW,257,0.0,4.0,94,0.01,,,0.04,,2013-03-18 22:03:00,
2013-03-18 18:13:00,35.0,33.0,29.63,WSW,257,0.0,4.0,94,0.01,,,0.04,,2013-03-18 22:13:00,
2013-03-18 18:23:00,35.0,34.0,29.63,SW,232,0.0,3.0,95,0.01,,,0.04,,2013-03-18 22:23:00,
2013-03-18 18:33:00,35.0,33.0,29.64,WNW,285,0.0,2.0,94,0.01,,,0.04,,2013-03-18 22:33:00,
2013-03-18 18:42:00,35.0,33.0,29.64,WNW,285,0.0,2.0,94,0.01,,,0.04,,2013-03-18 22:42:00,
2013-03-18 18:52:00,35.0,33.0,29.65,WSW,240,1.0,5.0,94,0.01,,,0.04,,2013-03-18 22:52:00,
2013-03-18 19:03:00,34.0,32.0,29.65,WNW,295,1.0,6.0,94,0.00,,,0.04,,2013-03-18 23:03:00,
2013-03-18 19:12:00,34.0,32.0,29.65,WNW,295,1.0,6.0,94,0.00,,,0.04,,2013-03-18 23:12:00,
2013-03-18 19:22:00,34.0,32.0,29.66,West,275,0.0,2.0,94,0.00,,,0.04,,2013-03-18 23:22:00,
2013-03-18 19:32:00,34.0,32.0,29.66,West,275,0.0,2.0,94,0.00,,,0.04,,2013-03-18 23:32:00,
2013-03-18 19:42:00,34.0,32.0,29.66,West,275,0.0,2.0,94,0.00,,,0.04,,2013-03-18 23:42:00,
2013-03-18 19:52:00,34.0,32.0,29.67,SW,234,0.0,2.0,94,0.00,,,0.04,,2013-03-18 23:52:00,
2013-03-18 20:02:00,34.0,32.0,29.68,SW,234,0.0,2.0,94,0.00,,,0.04,,2013-03-19 00:02:00,
2013-03-18 20:12:00,34.0,32.0,29.68,SW,234,0.0,2.0,94,0.00,,,0.04,,2013-03-19 00:12:00,
2013-03-18 20:22:00,34.0,32.0,29.69,SW,232,1.0,3.0,94,0.00,,,0.04,,2013-03-19 00:22:00,
2013-03-18 20:32:00,34.0,32.0,29.69,SW,230,0.0,2.0,94,0.00,,,0.04,,2013-03-19 00:32:00,
2013-03-18 20:42:00,34.0,32.0,29.69,SW,230,0.0,2.0,94,0.00,,,0.04,,2013-03-19 00:42:00,
2013-03-18 20:52:00,34.0,32.0,29.70,SSE,155,0.0,6.0,94,0.00,,,0.04,,2013-03-19 00:52:00,
2013-03-18 21:02:00,34.0,32.0,29.70,SSW,204,0.0,2.0,93,0.00,,,0.04,,2013-03-19 01:02:00,
2013-03-18 21:12:00,34.0,32.0,29.70,SSW,204,0.0,2.0,93,0.00,,,0.04,,2013-03-19 01:12:00,
2013-03-18 21:22:00,34.0,32.0,29.70,SSW,204,0.0,2.0,93,0.00,,,0.04,,2013-03-19 01:22:00,
2013-03-18 21:32:00,34.0,32.0,29.70,SSW,204,0.0,2.0,93,0.00,,,0.04,,2013-03-19 01:32:00,
2013-03-18 21:42:00,34.0,32.0,29.70,SSW,204,0.0,2.0,93,0.00,,,0.04,,2013-03-19 01:42:00,
2013-03-18 21:52:00,34.0,32.0,29.71,SW,215,0.0,3.0,94,0.00,,,0.04,,2013-03-19 01:52:00,
2013-03-18 22:02:00,33.0,31.0,29.72,NNW,332,2.0,12.0,91,0.00,,,0.04,,2013-03-19 02:02:00,
2013-03-18 22:12:00,33.0,31.0,29.72,NNW,332,2.0,12.0,91,0.00,,,0.04,,2013-03-19 02:12:00,
2013-03-18 22:22:00,33.0,31.0,29.73,West,270,2.0,8.0,91,0.00,,,0.04,,2013-03-19 02:22:00,
2013-03-18 22:32:00,32.0,29.0,29.73,WSW,254,0.0,5.0,90,0.00,,,0.04,,2013-03-19 02:32:00,
2013-03-18 22:42:00,32.0,29.0,29.73,WSW,254,0.0,5.0,90,0.00,,,0.04,,2013-03-19 02:42:00,
2013-03-18 22:52:00,32.0,29.0,29.73,WSW,254,0.0,5.0,90,0.00,,,0.04,,2013-03-19 02:52:00,
2013-03-18 23:02:00,31.0,27.0,29.75,NW,317,1.0,10.0,84,0.00,,,0.04,,2013-03-19 03:02:00,
2013-03-18 23:12:00,31.0,27.0,29.75,NW,317,1.0,10.0,84,0.00,,,0.04,,2013-03-19 03:12:00,
2013-03-18 23:22:00,30.0,25.0,29.76,WSW,253,2.0,7.0,82,0.00,,,0.04,,2013-03-19 03:22:00,
2013-03-18 23:33:00,29.0,24.0,29.76,West,273,2.0,6.0,81,0.00,,,0.04,,2013-03-19 03:33:00,
2013-03-18 23:43:00,29.0,24.0,29.76,West,273,2.0,6.0,81,0.00,,,0.04,,2013-03-19 03:43:00,
2013-03-18 23:53:00,29.0,25.0,29.78,WSW,243,1.0,8.0,83,0.00,,,0.04,,2013-03-19 03:53:00,